Palm Beach, FL (33480)

1:48 PM EDT on April 19, 2015 (GMT -0400)
Rybovich Boat Company | | Change Station
CLOSE
Current Station
Personal Weather Station
Location: West Palm Beach, FL
Elevation: 10 ft
Nearby Weather Stations

Elev 10 ft 26.75 °N, 80.05 °W | Updated 3 seconds ago

Partly Cloudy
Partly Cloudy
84.5 °F
Feels Like 92 °F
N
9.6
Wind Variable Wind from SSE
Gusts 16.0 mph

Today
High -- | Low -- °F
--% Chance of Precip.
Yesterday
High -- | Low -- °F
Precip. -- in
6:52 AM 7:46 PM
New Moon, 1% visible
Pressure 29.96 in
Visibility 10.0 miles
Clouds Few 3100 ft
Scattered Clouds 25000 ft
Heat Index 92 °F
Dew Point 73 °F
Humidity 70%
Rainfall 0.02 in
Snow Depth Not available.
UV 12 out of 12
Pollen 7.40 out of 12
Air Quality Not available.
Flu Activity Local Activity
METAR KPBI 191653Z 17013G17KT 10SM FEW031 SCT250 31/20 A2995 RMK AO2 SLP143 T03110200 $

More Conditions Fewer Conditions

Pressure 29.96 in
Visibility 10.0 miles
Clouds Few 3100 ft
Scattered Clouds 25000 ft
Heat Index 92 °F
Dew Point 73 °F
Humidity 70%
Rainfall 0.02 in
Snow Depth Not available.
UV 12 out of 12
Pollen 7.40 out of 12
Air Quality Not available.
Flu Activity Local Activity
METAR KPBI 191653Z 17013G17KT 10SM FEW031 SCT250 31/20 A2995 RMK AO2 SLP143 T03110200 $

More Conditions Fewer Conditions

10-Day Weather Forecast

Almanac

Astronomy

Apr. 19, 2015 Rise Set
Actual Time
Civil Twilight
Nautical Twilight
Astronomical Twilight
Moon
Length of Visible Light
Length of Day
Tomorrow will be .
, % of the Moon is Illuminated

Today's Extremes

State Highs State Lows

Community

WunderPhotos

Upload Photos

1,814,877 photos uploaded!

WunderBlogs® & News

Nearby

Air Quality

  Air Quality AQ Index Pollutant
Not available.

Snow Depth

Station Depth Elevation

Earthquake Activity

City Distance Mag. Time & Date
Minimum magnitude displayed is 2.5.

Coastal Water Temperatures

Place Temperature

Stations

Nearby Weather Stations

Station Location Temp. Windchill Dew Point Humidity Wind Precip. Elev Updated Type